createdAt,value
2023-08-21T00:00:53.805Z,16.91
2023-08-21T00:03:22.791Z,16.98
2023-08-21T00:05:53.032Z,16.98
2023-08-21T00:08:21.578Z,16.95
2023-08-21T00:10:50.184Z,16.96
2023-08-21T00:13:18.664Z,17.00
2023-08-21T00:15:47.205Z,16.98
2023-08-21T00:18:15.758Z,17.00
2023-08-21T00:20:44.236Z,17.00
2023-08-21T00:23:14.390Z,17.01
2023-08-21T00:25:44.796Z,16.98
2023-08-21T00:28:13.473Z,16.95
2023-08-21T00:30:42.365Z,16.94
2023-08-21T00:33:11.542Z,16.92
2023-08-21T00:35:39.992Z,17.06
2023-08-21T00:38:08.465Z,16.91
2023-08-21T00:40:38.527Z,16.94
2023-08-21T00:43:07.272Z,16.82
2023-08-21T00:45:35.879Z,16.79
2023-08-21T00:48:04.649Z,16.85
2023-08-21T00:50:34.192Z,16.85
2023-08-21T00:53:04.369Z,16.79
2023-08-21T00:55:33.661Z,16.94
2023-08-21T00:58:05.596Z,16.83
2023-08-21T01:00:36.134Z,16.84
2023-08-21T01:03:04.944Z,16.80
2023-08-21T01:05:33.904Z,16.83
2023-08-21T01:08:05.413Z,16.91
2023-08-21T01:10:48.433Z,16.83
2023-08-21T01:13:26.652Z,16.84
2023-08-21T01:15:58.122Z,16.83
2023-08-21T01:18:29.241Z,16.91
2023-08-21T01:20:59.896Z,16.93
2023-08-21T01:23:35.495Z,16.82
2023-08-21T01:26:04.311Z,16.83
2023-08-21T01:28:35.209Z,16.85
2023-08-21T01:31:10.228Z,16.82
2023-08-21T01:33:44.706Z,16.83
2023-08-21T01:36:13.584Z,16.79
2023-08-21T01:38:44.466Z,16.85
2023-08-21T01:41:13.049Z,16.83
2023-08-21T01:43:41.668Z,16.85
2023-08-21T01:46:11.625Z,16.88
2023-08-21T01:48:42.938Z,16.82
2023-08-21T01:51:11.381Z,16.75
2023-08-21T01:53:40.041Z,16.75
2023-08-21T01:56:10.075Z,16.80
2023-08-21T01:58:38.732Z,16.72
2023-08-21T02:01:07.356Z,16.75
2023-08-21T02:03:35.759Z,16.72
2023-08-21T02:06:04.444Z,16.77
2023-08-21T02:08:37.157Z,16.72
2023-08-21T02:11:05.559Z,16.68
2023-08-21T02:13:35.337Z,16.68
2023-08-21T02:16:06.194Z,16.71
2023-08-21T02:18:35.428Z,16.65
2023-08-21T02:21:05.999Z,16.69
2023-08-21T02:23:34.818Z,16.71
2023-08-21T02:26:03.703Z,16.66
2023-08-21T02:28:32.647Z,16.63
2023-08-21T02:31:02.818Z,16.63
2023-08-21T02:33:31.264Z,16.63
2023-08-21T02:35:59.979Z,16.70
2023-08-21T02:38:28.793Z,16.71
2023-08-21T02:40:57.267Z,16.64
2023-08-21T02:43:27.259Z,16.60
2023-08-21T02:45:55.784Z,16.62
2023-08-21T02:48:25.716Z,16.59
2023-08-21T02:50:54.177Z,16.52
2023-08-21T02:53:22.828Z,16.53
2023-08-21T02:55:51.402Z,16.53
2023-08-21T02:58:19.796Z,16.46
2023-08-21T03:00:48.531Z,16.56
2023-08-21T03:03:16.947Z,16.58
2023-08-21T03:05:46.947Z,16.63
2023-08-21T03:08:15.931Z,16.64
2023-08-21T03:10:44.488Z,16.52
2023-08-21T03:13:12.959Z,16.48
2023-08-21T03:15:41.394Z,16.52
2023-08-21T03:18:09.813Z,16.48
2023-08-21T03:20:38.248Z,16.51
2023-08-21T03:23:08.358Z,16.48
2023-08-21T03:25:36.964Z,16.56
2023-08-21T03:28:06.407Z,16.58
2023-08-21T03:30:35.065Z,16.62
2023-08-21T03:33:03.831Z,16.66
2023-08-21T03:35:32.425Z,16.65
2023-08-21T03:38:01.183Z,16.66
2023-08-21T03:40:31.505Z,16.68
2023-08-21T03:42:59.969Z,16.80
2023-08-21T03:45:28.540Z,16.72
2023-08-21T03:47:58.042Z,16.71
2023-08-21T03:50:26.411Z,16.71
2023-08-21T03:52:55.036Z,16.68
2023-08-21T03:55:23.528Z,16.72
2023-08-21T03:57:53.604Z,16.70
2023-08-21T04:00:22.144Z,16.71
2023-08-21T04:02:50.502Z,16.71
2023-08-21T04:05:19.006Z,16.71
2023-08-21T04:07:47.551Z,16.66
2023-08-21T04:10:17.149Z,16.62
2023-08-21T04:12:45.434Z,16.59
2023-08-21T04:15:15.765Z,16.59
2023-08-21T04:17:44.434Z,16.60
2023-08-21T04:20:13.852Z,16.62
2023-08-21T04:22:42.447Z,16.66
2023-08-21T04:25:12.560Z,16.70
2023-08-21T04:27:41.279Z,16.72
2023-08-21T04:30:11.993Z,16.75
2023-08-21T04:32:42.325Z,16.92
2023-08-21T04:35:11.808Z,16.91
2023-08-21T04:37:46.035Z,16.85
2023-08-21T04:40:15.272Z,16.94
2023-08-21T04:42:43.699Z,16.96
2023-08-21T04:45:12.632Z,16.93
2023-08-21T04:47:43.286Z,16.97
2023-08-21T04:50:11.941Z,16.97
2023-08-21T04:52:40.533Z,16.96
2023-08-21T04:55:10.102Z,17.08
2023-08-21T04:57:38.529Z,17.10
2023-08-21T05:00:08.460Z,17.03
2023-08-21T05:02:37.221Z,16.99
2023-08-21T05:05:09.777Z,17.09
2023-08-21T05:07:38.628Z,17.17
2023-08-21T05:10:08.479Z,17.24
2023-08-21T05:12:38.207Z,17.18
2023-08-21T05:15:07.469Z,17.26
2023-08-21T05:17:36.023Z,17.28
2023-08-21T05:20:04.909Z,17.33
2023-08-21T05:22:34.900Z,17.25
2023-08-21T05:25:03.526Z,17.27
2023-08-21T05:27:32.034Z,17.33
2023-08-21T05:30:00.985Z,17.25
2023-08-21T05:32:29.672Z,17.22
2023-08-21T05:34:58.055Z,17.19
2023-08-21T05:37:28.428Z,17.21
2023-08-21T05:40:00.683Z,17.26
2023-08-21T05:42:29.238Z,17.20
2023-08-21T05:44:57.973Z,17.24
2023-08-21T05:47:28.394Z,17.34
2023-08-21T05:49:59.545Z,17.36
2023-08-21T05:52:27.926Z,17.40
2023-08-21T05:54:57.964Z,17.41
2023-08-21T05:57:26.542Z,17.45
2023-08-21T05:59:55.203Z,17.44
2023-08-21T06:02:24.140Z,17.47
2023-08-21T06:04:52.621Z,17.45
2023-08-21T06:07:20.979Z,17.52
2023-08-21T06:09:49.269Z,17.60
2023-08-21T06:12:19.345Z,17.57
2023-08-21T06:14:48.264Z,17.53
2023-08-21T06:17:17.063Z,17.49
2023-08-21T06:19:45.567Z,17.46
2023-08-21T06:22:14.073Z,17.39
2023-08-21T06:24:42.904Z,17.40
2023-08-21T06:27:11.454Z,17.39
2023-08-21T06:29:41.880Z,17.49
2023-08-21T06:32:10.788Z,17.52
2023-08-21T06:34:42.236Z,17.58
2023-08-21T06:37:20.582Z,17.68
2023-08-21T06:39:55.199Z,17.67
2023-08-21T06:42:24.060Z,17.74
2023-08-21T06:44:54.134Z,17.68
2023-08-21T06:47:22.732Z,17.64
2023-08-21T06:49:52.001Z,17.59
2023-08-21T06:52:22.926Z,17.60
2023-08-21T06:54:55.030Z,17.64
2023-08-21T06:57:29.918Z,17.61
2023-08-21T07:00:04.317Z,17.68
2023-08-21T07:02:34.876Z,17.74
2023-08-21T07:05:12.518Z,17.74
2023-08-21T07:07:42.535Z,17.78
2023-08-21T07:10:13.213Z,17.79
2023-08-21T07:12:43.594Z,17.85
2023-08-21T07:15:14.877Z,17.86
2023-08-21T07:17:46.057Z,17.90
2023-08-21T07:20:14.790Z,17.94
2023-08-21T07:22:45.420Z,18.00
2023-08-21T07:25:14.359Z,17.97
2023-08-21T07:27:43.311Z,18.01
2023-08-21T07:30:14.057Z,17.97
2023-08-21T07:32:42.633Z,18.06
2023-08-21T07:35:12.288Z,18.00
2023-08-21T07:37:42.311Z,18.00
2023-08-21T07:40:11.173Z,18.01
2023-08-21T07:42:40.000Z,18.01
2023-08-21T07:45:09.738Z,17.97
2023-08-21T07:47:39.745Z,18.02
2023-08-21T07:50:09.738Z,18.02
2023-08-21T07:52:39.077Z,18.07
2023-08-21T07:55:08.273Z,18.16
2023-08-21T07:57:36.908Z,18.19
2023-08-21T08:00:09.919Z,18.17
2023-08-21T08:02:40.411Z,18.31
2023-08-21T08:05:10.728Z,18.37
2023-08-21T08:07:39.700Z,18.25
2023-08-21T08:10:08.660Z,18.35
2023-08-21T08:12:37.347Z,18.32
2023-08-21T08:15:06.958Z,18.40
2023-08-21T08:17:35.654Z,18.44
2023-08-21T08:20:07.871Z,18.51
2023-08-21T08:22:36.632Z,18.50
2023-08-21T08:25:07.390Z,18.47
2023-08-21T08:27:35.940Z,18.52
2023-08-21T08:30:05.449Z,18.56
2023-08-21T08:32:34.941Z,18.63
2023-08-21T08:35:03.536Z,18.73
2023-08-21T08:37:33.961Z,18.79
2023-08-21T08:40:02.746Z,18.81
2023-08-21T08:42:31.347Z,18.83
2023-08-21T08:45:04.525Z,18.91
2023-08-21T08:47:36.335Z,18.93
2023-08-21T08:50:06.917Z,18.95
2023-08-21T08:52:39.306Z,18.91
2023-08-21T08:55:09.291Z,18.97
2023-08-21T08:57:37.885Z,18.98
2023-08-21T09:00:07.946Z,19.02
2023-08-21T09:02:37.275Z,19.00
2023-08-21T09:05:08.352Z,19.02
2023-08-21T09:07:38.388Z,19.00
2023-08-21T09:10:17.074Z,19.01
2023-08-21T09:12:48.861Z,19.08
2023-08-21T09:15:17.612Z,19.12
2023-08-21T09:17:46.033Z,19.21
2023-08-21T09:20:15.647Z,19.21
2023-08-21T09:22:56.557Z,19.41
2023-08-21T09:25:27.309Z,19.53
2023-08-21T09:27:55.888Z,19.70
2023-08-21T09:30:24.486Z,19.71
2023-08-21T09:33:02.158Z,19.65
2023-08-21T09:35:35.223Z,19.67
2023-08-21T09:38:08.260Z,19.82
2023-08-21T09:40:36.993Z,20.13
2023-08-21T09:43:06.515Z,20.21
2023-08-21T09:45:37.497Z,20.44
2023-08-21T09:48:07.926Z,20.35
2023-08-21T09:50:39.949Z,20.33
2023-08-21T09:53:11.143Z,20.39
2023-08-21T09:55:49.493Z,20.53
2023-08-21T09:58:19.887Z,20.60
2023-08-21T10:00:51.828Z,20.52
2023-08-21T10:05:59.012Z,20.67
2023-08-21T10:08:31.981Z,20.82
2023-08-21T10:11:04.483Z,20.82
2023-08-21T10:13:34.829Z,20.71
2023-08-21T10:16:03.909Z,20.71
2023-08-21T10:18:35.044Z,20.73
2023-08-21T10:21:18.317Z,20.84
2023-08-21T10:23:51.225Z,21.08
2023-08-21T10:26:23.042Z,21.02
2023-08-21T10:28:53.387Z,21.09
2023-08-21T10:31:36.368Z,21.29
2023-08-21T10:34:06.370Z,21.57
2023-08-21T10:36:56.788Z,21.56
2023-08-21T10:39:28.620Z,21.74
2023-08-21T10:41:58.079Z,21.80
2023-08-21T10:44:57.469Z,21.77
2023-08-21T10:47:34.763Z,21.60
2023-08-21T10:50:05.072Z,21.49
2023-08-21T10:52:37.482Z,21.03
2023-08-21T10:55:09.262Z,21.24
2023-08-21T10:57:38.997Z,21.45
2023-08-21T11:00:12.641Z,21.45
2023-08-21T11:02:43.166Z,21.60
2023-08-21T11:05:13.331Z,21.77
2023-08-21T11:07:45.172Z,21.77
2023-08-21T11:10:17.919Z,21.60
2023-08-21T11:12:57.069Z,21.20
2023-08-21T11:15:27.707Z,21.12
2023-08-21T11:17:58.339Z,20.93
2023-08-21T11:20:32.034Z,20.88
2023-08-21T11:23:02.031Z,21.19
2023-08-21T11:25:32.891Z,21.30
2023-08-21T11:28:09.751Z,21.70
2023-08-21T11:30:39.240Z,21.97
2023-08-21T11:33:09.258Z,22.02
2023-08-21T11:35:38.622Z,21.83
2023-08-21T11:38:10.398Z,21.99
2023-08-21T11:40:42.529Z,21.69
2023-08-21T11:43:11.046Z,21.85
2023-08-21T11:45:56.878Z,21.78
2023-08-21T11:48:27.211Z,21.83
2023-08-21T11:50:56.032Z,21.83
2023-08-21T11:53:35.498Z,21.95
2023-08-21T11:56:06.105Z,21.68
2023-08-21T11:58:34.558Z,21.57
2023-08-21T12:01:06.743Z,21.47
2023-08-21T12:03:39.591Z,21.57
2023-08-21T12:06:11.847Z,21.84
2023-08-21T12:08:41.762Z,21.98
2023-08-21T12:11:12.889Z,21.83
2023-08-21T12:13:41.370Z,21.98
2023-08-21T12:16:10.053Z,21.85
2023-08-21T12:18:38.444Z,21.61
2023-08-21T12:21:09.423Z,22.03
2023-08-21T12:23:37.868Z,22.40
2023-08-21T12:26:06.407Z,22.13
2023-08-21T12:28:36.761Z,21.83
2023-08-21T12:31:05.689Z,21.88
2023-08-21T12:33:34.328Z,22.27
2023-08-21T12:36:03.214Z,22.80
2023-08-21T12:38:31.903Z,22.28
2023-08-21T12:41:00.759Z,22.02
2023-08-21T12:43:29.251Z,21.89
2023-08-21T12:46:00.251Z,21.68
2023-08-21T12:48:28.967Z,21.44
2023-08-21T12:50:57.440Z,21.37
2023-08-21T12:53:25.747Z,21.33
2023-08-21T12:55:54.512Z,21.95
2023-08-21T12:58:23.576Z,22.15
2023-08-21T13:00:52.455Z,22.55
2023-08-21T13:03:23.011Z,22.38
2023-08-21T13:05:52.214Z,22.18
2023-08-21T13:08:24.644Z,22.00
2023-08-21T13:10:53.378Z,22.52
2023-08-21T13:13:22.083Z,22.23
2023-08-21T13:15:52.263Z,22.17
2023-08-21T13:18:22.341Z,22.40
2023-08-21T13:20:51.076Z,22.18
2023-08-21T13:23:21.943Z,21.87
2023-08-21T13:25:50.692Z,21.73
2023-08-21T13:28:22.262Z,21.88
2023-08-21T13:30:50.961Z,21.92
2023-08-21T13:33:22.167Z,22.01
2023-08-21T13:35:50.704Z,21.91
2023-08-21T13:38:19.554Z,21.99
2023-08-21T13:40:48.063Z,21.93
2023-08-21T13:43:16.582Z,22.01
2023-08-21T13:45:46.035Z,22.16
2023-08-21T13:48:15.973Z,22.48
2023-08-21T13:50:46.102Z,22.58
2023-08-21T13:53:14.603Z,22.45
2023-08-21T13:55:43.006Z,22.70
2023-08-21T13:58:11.506Z,22.77
2023-08-21T14:00:39.939Z,22.48
2023-08-21T14:03:08.430Z,22.48
2023-08-21T14:05:38.515Z,22.28
2023-08-21T14:08:08.713Z,22.21
2023-08-21T14:10:37.178Z,22.35
2023-08-21T14:13:09.279Z,22.25
2023-08-21T14:15:37.876Z,22.97
2023-08-21T14:18:07.182Z,22.70
2023-08-21T14:20:35.812Z,23.80
2023-08-21T14:23:04.559Z,24.84
2023-08-21T14:25:34.461Z,24.97
2023-08-21T14:28:03.243Z,23.74
2023-08-21T14:30:33.615Z,23.70
2023-08-21T14:33:04.050Z,24.82
2023-08-21T14:35:32.537Z,24.92
2023-08-21T14:38:01.575Z,25.45
2023-08-21T14:40:29.914Z,25.26
2023-08-21T14:43:00.249Z,25.65
2023-08-21T14:45:29.067Z,25.68
2023-08-21T14:47:57.866Z,26.01
2023-08-21T14:50:26.318Z,26.39
2023-08-21T14:52:55.140Z,25.62
2023-08-21T14:55:23.531Z,25.48
2023-08-21T14:57:53.932Z,24.35
2023-08-21T15:00:24.174Z,24.51
2023-08-21T15:02:52.816Z,25.40
2023-08-21T15:05:23.328Z,25.74
2023-08-21T15:07:52.830Z,25.89
2023-08-21T15:10:21.352Z,25.83
2023-08-21T15:12:49.798Z,25.09
2023-08-21T15:15:24.427Z,25.49
2023-08-21T15:17:57.169Z,26.04
2023-08-21T15:20:25.908Z,26.06
2023-08-21T15:22:54.650Z,26.35
2023-08-21T15:25:23.691Z,26.25
2023-08-21T15:27:52.991Z,25.82
2023-08-21T15:30:21.549Z,25.63
2023-08-21T15:32:50.229Z,25.46
2023-08-21T15:35:21.175Z,24.99
2023-08-21T15:37:50.925Z,25.30
2023-08-21T15:40:19.621Z,25.85
2023-08-21T15:42:50.076Z,25.93
2023-08-21T15:45:18.652Z,25.75
2023-08-21T15:47:48.966Z,25.32
2023-08-21T15:50:21.280Z,24.59
2023-08-21T15:52:50.754Z,25.20
2023-08-21T15:55:19.212Z,25.01
2023-08-21T15:57:47.930Z,24.51
2023-08-21T16:00:17.700Z,25.19
2023-08-21T16:02:47.319Z,25.47
2023-08-21T16:05:15.829Z,25.01
2023-08-21T16:07:46.557Z,23.70
2023-08-21T16:10:15.353Z,23.35
2023-08-21T16:12:43.700Z,23.96
2023-08-21T16:15:15.177Z,23.29
2023-08-21T16:17:43.786Z,22.96
2023-08-21T16:20:16.731Z,23.99
2023-08-21T16:22:49.915Z,24.63
2023-08-21T16:25:18.292Z,23.57
2023-08-21T16:27:46.976Z,23.31
2023-08-21T16:30:15.828Z,23.35
2023-08-21T16:32:44.918Z,24.44
2023-08-21T16:35:14.555Z,24.77
2023-08-21T16:37:45.255Z,25.13
2023-08-21T16:40:15.413Z,24.84
2023-08-21T16:42:44.077Z,23.94
2023-08-21T16:45:15.586Z,25.11
2023-08-21T16:47:46.845Z,25.52
2023-08-21T16:50:15.947Z,25.42
2023-08-21T16:52:44.577Z,25.26
2023-08-21T16:55:15.056Z,25.19
2023-08-21T16:57:44.856Z,25.64
2023-08-21T17:00:16.657Z,25.21
2023-08-21T17:02:45.856Z,24.83
2023-08-21T17:05:14.649Z,24.71
2023-08-21T17:07:45.703Z,25.27
2023-08-21T17:10:16.720Z,25.27
2023-08-21T17:12:47.344Z,24.28
2023-08-21T17:15:16.999Z,23.31
2023-08-21T17:17:46.764Z,22.57
2023-08-21T17:20:15.443Z,22.26
2023-08-21T17:22:54.091Z,22.46
2023-08-21T17:25:37.419Z,22.07
2023-08-21T17:28:06.979Z,21.86
2023-08-21T17:33:57.684Z,21.72
2023-08-21T17:36:29.364Z,21.50
2023-08-21T17:38:59.146Z,21.56
2023-08-21T17:41:30.319Z,22.11
2023-08-21T17:43:59.447Z,22.36
2023-08-21T17:46:28.894Z,22.96
2023-08-21T17:48:57.297Z,23.24
2023-08-21T17:51:25.639Z,23.42
2023-08-21T17:53:54.557Z,23.95
2023-08-21T17:56:23.126Z,24.13
2023-08-21T17:58:53.166Z,24.52
2023-08-21T18:01:22.505Z,23.87
2023-08-21T18:03:51.244Z,23.61
2023-08-21T18:06:23.264Z,23.52
2023-08-21T18:08:51.809Z,23.42
2023-08-21T18:11:23.417Z,23.20
2023-08-21T18:13:56.207Z,22.99
2023-08-21T18:16:24.720Z,22.88
2023-08-21T18:18:55.216Z,22.65
2023-08-21T18:21:24.155Z,22.28
2023-08-21T18:23:52.489Z,22.52
2023-08-21T18:26:23.420Z,22.70
2023-08-21T18:28:53.552Z,23.00
2023-08-21T18:31:22.033Z,23.19
2023-08-21T18:33:51.780Z,23.26
2023-08-21T18:36:20.159Z,23.67
2023-08-21T18:38:50.029Z,23.14
2023-08-21T18:41:19.262Z,22.96
2023-08-21T18:44:13.430Z,22.87
2023-08-21T18:46:43.020Z,22.81
2023-08-21T18:49:11.654Z,22.16
2023-08-21T18:51:40.284Z,22.24
2023-08-21T18:54:08.945Z,22.14
2023-08-21T18:56:41.359Z,21.77
2023-08-21T18:59:11.643Z,21.64
2023-08-21T19:01:42.647Z,21.57
2023-08-21T19:04:13.509Z,21.18
2023-08-21T19:07:00.056Z,20.30
2023-08-21T19:09:34.437Z,19.98
2023-08-21T19:12:02.809Z,19.73
2023-08-21T19:14:33.106Z,19.61
2023-08-21T19:17:01.855Z,19.56
2023-08-21T19:19:34.633Z,19.46
2023-08-21T19:22:03.175Z,19.32
2023-08-21T19:24:35.026Z,19.29
2023-08-21T19:27:05.493Z,19.16
2023-08-21T19:29:38.894Z,19.30
2023-08-21T19:32:07.976Z,19.09
2023-08-21T19:34:37.166Z,19.00
2023-08-21T19:37:06.575Z,18.93
2023-08-21T19:39:37.438Z,18.92
2023-08-21T19:42:06.923Z,18.83
2023-08-21T19:44:36.672Z,18.71
2023-08-21T19:47:05.302Z,18.74
2023-08-21T19:49:36.512Z,18.62
2023-08-21T19:52:06.543Z,18.61
2023-08-21T19:54:35.341Z,18.52
2023-08-21T19:57:04.319Z,18.65
2023-08-21T19:59:32.639Z,18.53
2023-08-21T20:02:03.853Z,18.42
2023-08-21T20:04:32.336Z,18.34
2023-08-21T20:07:01.481Z,18.33
2023-08-21T20:09:29.921Z,18.43
2023-08-21T20:11:58.295Z,18.26
2023-08-21T20:14:27.881Z,18.22
2023-08-21T20:16:56.732Z,18.34
2023-08-21T20:19:27.272Z,18.32
2023-08-21T20:21:55.756Z,18.19
2023-08-21T20:24:25.822Z,18.17
2023-08-21T20:26:54.780Z,18.31
2023-08-21T20:29:23.363Z,18.13
2023-08-21T20:31:52.093Z,18.18
2023-08-21T20:34:20.437Z,18.09
2023-08-21T20:36:51.415Z,18.07
2023-08-21T20:39:20.762Z,17.96
2023-08-21T20:41:49.196Z,17.95
2023-08-21T20:44:17.802Z,17.93
2023-08-21T20:46:46.368Z,17.95
2023-08-21T20:49:14.783Z,17.91
2023-08-21T20:51:43.426Z,17.81
2023-08-21T20:54:13.524Z,17.68
2023-08-21T20:56:44.518Z,17.68
2023-08-21T20:59:17.446Z,17.59
2023-08-21T21:01:47.228Z,17.65
2023-08-21T21:04:17.033Z,17.62
2023-08-21T21:06:45.918Z,17.65
2023-08-21T21:09:23.666Z,17.65
2023-08-21T21:11:54.575Z,17.57
2023-08-21T21:14:24.363Z,17.56
2023-08-21T21:16:52.926Z,17.63
2023-08-21T21:19:23.776Z,17.59
2023-08-21T21:21:55.735Z,17.47
2023-08-21T21:24:29.631Z,17.46
2023-08-21T21:27:00.324Z,17.40
2023-08-21T21:29:30.445Z,17.31
2023-08-21T21:32:01.035Z,17.22
2023-08-21T21:34:29.567Z,17.26
2023-08-21T21:37:00.075Z,17.22
2023-08-21T21:39:34.378Z,17.26
2023-08-21T21:42:03.660Z,17.17
2023-08-21T21:44:32.507Z,17.14
2023-08-21T21:47:00.984Z,17.11
2023-08-21T21:49:33.088Z,17.21
2023-08-21T21:52:01.816Z,17.11
2023-08-21T21:54:32.491Z,17.12
2023-08-21T21:57:02.549Z,17.17
2023-08-21T21:59:36.637Z,17.20
2023-08-21T22:02:05.692Z,17.22
2023-08-21T22:04:41.567Z,17.27
2023-08-21T22:07:13.673Z,17.25
2023-08-21T22:09:44.581Z,17.15
2023-08-21T22:12:14.899Z,17.12
2023-08-21T22:14:45.617Z,17.14
2023-08-21T22:17:15.277Z,17.08
2023-08-21T22:19:45.271Z,17.10
2023-08-21T22:22:19.061Z,17.06
2023-08-21T22:24:50.315Z,17.13
2023-08-21T22:27:20.416Z,17.09
2023-08-21T22:29:49.036Z,17.02
2023-08-21T22:32:17.750Z,16.98
2023-08-21T22:34:46.267Z,17.00
2023-08-21T22:37:15.002Z,16.99
2023-08-21T22:39:45.902Z,16.93
2023-08-21T22:42:16.242Z,16.93
2023-08-21T22:44:44.924Z,16.96
2023-08-21T22:47:13.646Z,16.91
2023-08-21T22:49:47.268Z,16.83
2023-08-21T22:52:19.768Z,16.85
2023-08-21T22:54:49.530Z,16.80
2023-08-21T22:57:20.647Z,16.80
2023-08-21T22:59:49.139Z,16.79
2023-08-21T23:02:18.561Z,16.75
2023-08-21T23:04:47.188Z,16.81
2023-08-21T23:07:17.090Z,16.85
2023-08-21T23:09:45.775Z,16.83
2023-08-21T23:12:14.396Z,16.81
2023-08-21T23:14:51.659Z,16.88
2023-08-21T23:17:21.260Z,16.85
2023-08-21T23:19:50.846Z,16.82
2023-08-21T23:22:20.666Z,16.85
2023-08-21T23:24:50.381Z,16.87
2023-08-21T23:27:19.092Z,16.86
2023-08-21T23:29:50.358Z,16.91
2023-08-21T23:32:20.898Z,16.90
2023-08-21T23:34:56.434Z,16.90
2023-08-21T23:37:26.098Z,16.86
2023-08-21T23:39:56.490Z,16.88
2023-08-21T23:42:26.285Z,16.83
2023-08-21T23:44:56.701Z,16.84
2023-08-21T23:47:27.181Z,16.85
2023-08-21T23:49:55.593Z,16.91
2023-08-21T23:52:26.960Z,16.97
2023-08-21T23:54:56.760Z,16.99
2023-08-21T23:57:27.714Z,16.97
